createdAt,value
2022-12-28T00:00:35.566Z,51.111252
2022-12-28T00:01:35.485Z,51.111313
2022-12-28T00:02:35.468Z,51.111294
2022-12-28T00:03:35.458Z,51.111233
2022-12-28T00:04:35.484Z,51.111164
2022-12-28T00:05:35.431Z,51.111259
2022-12-28T00:06:35.476Z,51.111286
2022-12-28T00:07:35.387Z,51.111294
2022-12-28T00:08:35.357Z,51.111183
2022-12-28T00:09:35.385Z,51.111191
2022-12-28T00:11:08.429Z,51.111210
2022-12-28T00:11:36.350Z,51.111259
2022-12-28T00:12:35.376Z,51.111336
2022-12-28T00:13:35.365Z,51.111210
2022-12-28T00:14:35.347Z,51.111187
2022-12-28T00:15:35.345Z,51.111103
2022-12-28T00:16:35.370Z,51.111107
2022-12-28T00:17:35.371Z,51.111149
2022-12-28T00:18:35.327Z,51.111202
2022-12-28T00:19:35.309Z,51.111275
2022-12-28T00:20:35.339Z,51.111290
2022-12-28T00:21:35.307Z,51.111393
2022-12-28T00:22:35.544Z,51.111317
2022-12-28T00:23:35.288Z,51.111317
2022-12-28T00:24:35.320Z,51.111252
2022-12-28T00:25:35.324Z,51.111225
2022-12-28T00:26:35.260Z,51.111240
2022-12-28T00:27:35.300Z,51.111282
2022-12-28T00:28:35.339Z,51.111237
2022-12-28T00:29:35.274Z,51.111282
2022-12-28T00:30:35.227Z,51.111259
2022-12-28T00:31:35.383Z,51.111275
2022-12-28T00:32:35.230Z,51.111298
2022-12-28T00:33:35.321Z,51.111237
2022-12-28T00:34:36.219Z,51.111271
2022-12-28T00:35:35.204Z,51.111263
2022-12-28T00:37:08.702Z,51.111309
2022-12-28T00:37:36.126Z,51.111313
2022-12-28T00:38:35.196Z,51.111301
2022-12-28T00:39:35.172Z,51.111275
2022-12-28T00:40:35.181Z,51.111252
2022-12-28T00:41:35.169Z,51.111305
2022-12-28T00:42:35.131Z,51.111267
2022-12-28T00:43:35.163Z,51.111248
2022-12-28T00:44:35.216Z,51.111286
2022-12-28T00:45:35.163Z,51.111240
2022-12-28T00:46:35.123Z,51.111263
2022-12-28T00:47:35.128Z,51.111240
2022-12-28T00:48:35.090Z,51.111198
2022-12-28T00:49:35.129Z,51.111256
2022-12-28T00:50:35.153Z,51.111279
2022-12-28T00:51:35.079Z,51.111286
2022-12-28T00:52:35.012Z,51.111294
2022-12-28T00:53:34.981Z,51.111290
2022-12-28T00:54:34.984Z,51.111301
2022-12-28T00:55:35.000Z,51.111256
2022-12-28T00:56:34.989Z,51.111271
2022-12-28T00:57:35.020Z,51.111259
2022-12-28T00:58:34.969Z,51.111275
2022-12-28T00:59:34.984Z,51.111271
2022-12-28T01:00:34.968Z,51.111244
2022-12-28T01:01:35.188Z,51.111259
2022-12-28T01:02:35.054Z,51.111290
2022-12-28T01:03:35.018Z,51.111271
2022-12-28T01:04:34.988Z,51.111244
2022-12-28T01:05:34.984Z,51.111256
2022-12-28T01:06:35.026Z,51.111263
2022-12-28T01:07:34.980Z,51.111256
2022-12-28T01:08:34.955Z,51.111290
2022-12-28T01:09:34.968Z,51.111244
2022-12-28T01:10:34.942Z,51.111237
2022-12-28T01:11:34.954Z,51.111248
2022-12-28T01:12:38.300Z,51.111279
2022-12-28T01:13:35.943Z,51.111282
2022-12-28T01:14:34.979Z,51.111298
2022-12-28T01:15:34.972Z,51.111317
2022-12-28T01:16:35.021Z,51.111305
2022-12-28T01:17:35.020Z,51.111275
2022-12-28T01:18:34.908Z,51.111259
2022-12-28T01:19:34.879Z,51.111214
2022-12-28T01:20:34.911Z,51.111275
2022-12-28T01:21:34.897Z,51.111282
2022-12-28T01:22:34.882Z,51.111317
2022-12-28T01:23:35.165Z,51.111309
2022-12-28T01:24:34.891Z,51.111301
2022-12-28T01:25:34.885Z,51.111328
2022-12-28T01:26:34.880Z,51.111301
2022-12-28T01:27:34.837Z,51.111294
2022-12-28T01:28:34.872Z,51.111313
2022-12-28T01:29:34.849Z,51.111271
2022-12-28T01:30:34.940Z,51.111279
2022-12-28T01:31:34.845Z,51.111328
2022-12-28T01:32:34.784Z,51.111256
2022-12-28T01:33:34.825Z,51.111275
2022-12-28T01:34:34.824Z,51.111263
2022-12-28T01:35:34.777Z,51.111267
2022-12-28T01:36:34.811Z,51.111263
2022-12-28T01:37:34.769Z,51.111286
2022-12-28T01:38:34.812Z,51.111252
2022-12-28T01:39:34.819Z,51.111286
2022-12-28T01:40:34.828Z,51.111275
2022-12-28T01:41:34.735Z,51.111256
2022-12-28T01:42:34.718Z,51.111240
2022-12-28T01:43:34.715Z,51.111259
2022-12-28T01:44:34.643Z,51.111256
2022-12-28T01:45:34.717Z,51.111301
2022-12-28T01:46:34.752Z,51.111298
2022-12-28T01:47:34.624Z,51.111301
2022-12-28T01:48:34.611Z,51.111240
2022-12-28T01:49:34.590Z,51.111248
2022-12-28T01:50:34.622Z,51.111271
2022-12-28T01:51:34.612Z,51.111298
2022-12-28T01:52:34.649Z,51.111271
2022-12-28T01:53:34.660Z,51.111259
2022-12-28T01:54:34.603Z,51.111237
2022-12-28T01:55:34.610Z,51.111237
2022-12-28T01:56:34.684Z,51.111244
2022-12-28T01:57:34.667Z,51.111286
2022-12-28T01:58:34.603Z,51.111343
2022-12-28T01:59:34.696Z,51.111362
2022-12-28T02:00:34.604Z,51.111271
2022-12-28T02:01:34.738Z,51.111195
2022-12-28T02:02:34.824Z,51.111263
2022-12-28T02:03:34.628Z,51.111275
2022-12-28T02:04:34.582Z,51.111275
2022-12-28T02:05:34.601Z,51.111286
2022-12-28T02:06:34.580Z,51.111320
2022-12-28T02:07:34.590Z,51.111404
2022-12-28T02:08:34.481Z,51.111351
2022-12-28T02:09:34.535Z,51.111233
2022-12-28T02:10:43.732Z,51.111156
2022-12-28T02:11:35.439Z,51.111191
2022-12-28T02:12:34.555Z,51.111282
2022-12-28T02:13:34.523Z,51.111248
2022-12-28T02:14:34.507Z,51.111286
2022-12-28T02:15:34.495Z,51.111244
2022-12-28T02:16:34.544Z,51.111290
2022-12-28T02:17:34.473Z,51.111286
2022-12-28T02:18:34.524Z,51.111309
2022-12-28T02:19:34.508Z,51.111294
2022-12-28T02:20:34.482Z,51.111279
2022-12-28T02:21:34.531Z,51.111229
2022-12-28T02:22:34.493Z,51.111347
2022-12-28T02:23:34.767Z,51.111374
2022-12-28T02:24:34.468Z,51.111355
2022-12-28T02:25:34.431Z,51.111309
2022-12-28T02:26:34.530Z,51.111294
2022-12-28T02:27:34.449Z,51.111332
2022-12-28T02:28:34.446Z,51.111298
2022-12-28T02:29:34.489Z,51.111317
2022-12-28T02:30:34.457Z,51.111271
2022-12-28T02:31:34.366Z,51.111294
2022-12-28T02:32:34.357Z,51.111347
2022-12-28T02:33:34.367Z,51.111320
2022-12-28T02:34:34.460Z,51.111313
2022-12-28T02:35:34.343Z,51.111271
2022-12-28T02:36:34.288Z,51.111351
2022-12-28T02:37:34.312Z,51.111370
2022-12-28T02:38:34.339Z,51.111317
2022-12-28T02:39:34.246Z,51.111347
2022-12-28T02:40:34.291Z,51.111351
2022-12-28T02:41:34.265Z,51.111355
2022-12-28T02:42:34.237Z,51.111355
2022-12-28T02:43:34.212Z,51.111279
2022-12-28T02:44:34.274Z,51.111286
2022-12-28T02:45:34.369Z,51.111279
2022-12-28T02:46:34.268Z,51.111320
2022-12-28T02:47:34.337Z,51.111256
2022-12-28T02:48:34.335Z,51.111279
2022-12-28T02:49:34.323Z,51.111267
2022-12-28T02:50:34.237Z,51.111275
2022-12-28T02:51:34.273Z,51.111340
2022-12-28T02:52:34.251Z,51.111313
2022-12-28T02:53:34.194Z,51.111309
2022-12-28T02:54:34.261Z,51.111305
2022-12-28T02:55:34.245Z,51.111290
2022-12-28T02:56:34.228Z,51.111298
2022-12-28T02:57:34.226Z,51.111282
2022-12-28T02:58:34.177Z,51.111252
2022-12-28T02:59:34.180Z,51.111301
2022-12-28T03:00:34.172Z,51.111252
2022-12-28T03:01:34.241Z,51.111385
2022-12-28T03:02:34.315Z,51.111435
2022-12-28T03:03:34.153Z,51.111340
2022-12-28T03:04:34.149Z,51.111290
2022-12-28T03:05:34.158Z,51.111320
2022-12-28T03:06:34.152Z,51.111294
2022-12-28T03:07:34.191Z,51.111263
2022-12-28T03:08:34.187Z,51.111286
2022-12-28T03:09:34.095Z,51.111233
2022-12-28T03:10:34.170Z,51.111195
2022-12-28T03:11:34.102Z,51.111202
2022-12-28T03:12:34.082Z,51.111267
2022-12-28T03:13:34.094Z,51.111240
2022-12-28T03:14:34.095Z,51.111252
2022-12-28T03:15:34.078Z,51.111195
2022-12-28T03:16:34.085Z,51.111176
2022-12-28T03:17:34.023Z,51.111252
2022-12-28T03:18:34.067Z,51.111191
2022-12-28T03:19:34.043Z,51.111164
2022-12-28T03:20:34.041Z,51.111118
2022-12-28T03:21:34.045Z,51.111195
2022-12-28T03:22:34.027Z,51.111309
2022-12-28T03:23:34.067Z,51.111214
2022-12-28T03:24:34.438Z,51.111225
2022-12-28T03:25:34.029Z,51.111294
2022-12-28T03:26:34.011Z,51.111259
2022-12-28T03:27:34.247Z,51.111206
2022-12-28T03:28:33.903Z,51.111290
2022-12-28T03:29:33.918Z,51.111317
2022-12-28T03:30:33.894Z,51.111263
2022-12-28T03:31:33.883Z,51.111294
2022-12-28T03:32:33.903Z,51.111309
2022-12-28T03:33:33.880Z,51.111237
2022-12-28T03:34:33.840Z,51.111210
2022-12-28T03:35:33.920Z,51.111217
2022-12-28T03:36:33.928Z,51.111210
2022-12-28T03:37:33.907Z,51.111240
2022-12-28T03:38:33.887Z,51.111252
2022-12-28T03:39:33.886Z,51.111263
2022-12-28T03:40:33.995Z,51.111279
2022-12-28T03:41:33.884Z,51.111271
2022-12-28T03:42:33.874Z,51.111290
2022-12-28T03:43:33.898Z,51.111282
2022-12-28T03:44:33.883Z,51.111256
2022-12-28T03:45:45.323Z,51.111248
2022-12-28T03:46:34.854Z,51.111187
2022-12-28T03:47:33.843Z,51.111141
2022-12-28T03:48:33.899Z,51.111111
2022-12-28T03:49:33.817Z,51.111221
2022-12-28T03:50:33.839Z,51.111256
2022-12-28T03:51:33.892Z,51.111237
2022-12-28T03:52:33.846Z,51.111237
2022-12-28T03:53:33.828Z,51.111259
2022-12-28T03:54:33.854Z,51.111279
2022-12-28T03:55:33.772Z,51.111282
2022-12-28T03:56:33.870Z,51.111267
2022-12-28T03:57:33.849Z,51.111267
2022-12-28T03:58:33.754Z,51.111252
2022-12-28T03:59:33.726Z,51.111248
2022-12-28T04:00:33.742Z,51.111244
2022-12-28T04:01:33.806Z,51.111191
2022-12-28T04:02:33.943Z,51.111225
2022-12-28T04:03:33.765Z,51.111248
2022-12-28T04:04:33.738Z,51.111263
2022-12-28T04:05:33.698Z,51.111267
2022-12-28T04:06:33.876Z,51.111271
2022-12-28T04:07:35.902Z,51.111271
2022-12-28T04:08:33.719Z,51.111252
2022-12-28T04:09:33.688Z,51.111244
2022-12-28T04:10:33.659Z,51.111259
2022-12-28T04:11:34.609Z,51.111275
2022-12-28T04:12:33.685Z,51.111267
2022-12-28T04:13:33.779Z,51.111267
2022-12-28T04:14:33.663Z,51.111267
2022-12-28T04:15:33.711Z,51.111263
2022-12-28T04:16:33.578Z,51.111221
2022-12-28T04:17:33.585Z,51.111221
2022-12-28T04:18:33.605Z,51.111259
2022-12-28T04:19:33.575Z,51.111259
2022-12-28T04:20:33.528Z,51.111263
2022-12-28T04:21:33.533Z,51.111233
2022-12-28T04:22:33.598Z,51.111259
2022-12-28T04:23:33.566Z,51.111263
2022-12-28T04:24:34.176Z,51.111263
2022-12-28T04:25:33.486Z,51.111263
2022-12-28T04:26:33.641Z,51.111259
2022-12-28T04:27:33.588Z,51.111298
2022-12-28T04:28:33.544Z,51.111282
2022-12-28T04:29:33.545Z,51.111290
2022-12-28T04:30:33.582Z,51.111263
2022-12-28T04:31:33.669Z,51.111263
2022-12-28T04:32:34.597Z,51.111271
2022-12-28T04:33:33.526Z,51.111290
2022-12-28T04:34:33.525Z,51.111301
2022-12-28T04:35:33.567Z,51.111328
2022-12-28T04:36:33.536Z,51.111301
2022-12-28T04:37:33.525Z,51.111271
2022-12-28T04:38:33.523Z,51.111271
2022-12-28T04:39:54.260Z,51.111275
2022-12-28T04:40:34.428Z,51.111298
2022-12-28T04:41:33.547Z,51.111290
2022-12-28T04:42:33.572Z,51.111259
2022-12-28T04:43:33.478Z,51.111263
2022-12-28T04:44:33.476Z,51.111275
2022-12-28T04:45:33.446Z,51.111282
2022-12-28T04:46:33.514Z,51.111294
2022-12-28T04:47:33.409Z,51.111259
2022-12-28T04:48:33.443Z,51.111252
2022-12-28T04:49:33.420Z,51.111305
2022-12-28T04:50:33.386Z,51.111256
2022-12-28T04:51:33.444Z,51.111229
2022-12-28T04:52:33.364Z,51.111229
2022-12-28T04:53:33.388Z,51.111263
2022-12-28T04:54:33.372Z,51.111252
2022-12-28T04:55:33.661Z,51.111286
2022-12-28T04:56:34.369Z,51.111279
2022-12-28T04:57:34.375Z,51.111263
2022-12-28T04:58:33.391Z,51.111282
2022-12-28T04:59:33.405Z,51.111282
2022-12-28T05:00:33.402Z,51.111275
2022-12-28T05:01:33.483Z,51.111282
2022-12-28T05:02:34.426Z,51.111294
2022-12-28T05:03:33.382Z,51.111282
2022-12-28T05:04:33.301Z,51.111294
2022-12-28T05:05:33.401Z,51.111317
2022-12-28T05:06:33.282Z,51.111313
2022-12-28T05:07:33.209Z,51.111298
2022-12-28T05:08:33.254Z,51.111286
2022-12-28T05:09:33.203Z,51.111271
2022-12-28T05:10:33.200Z,51.111256
2022-12-28T05:11:33.229Z,51.111237
2022-12-28T05:12:33.192Z,51.111263
2022-12-28T05:13:33.239Z,51.111301
2022-12-28T05:14:37.011Z,51.111286
2022-12-28T05:15:34.202Z,51.111263
2022-12-28T05:16:33.214Z,51.111229
2022-12-28T05:17:33.167Z,51.111263
2022-12-28T05:18:33.146Z,51.111301
2022-12-28T05:19:33.386Z,51.111294
2022-12-28T05:20:33.135Z,51.111252
2022-12-28T05:21:33.116Z,51.111271
2022-12-28T05:22:36.293Z,51.111248
2022-12-28T05:23:35.100Z,51.111263
2022-12-28T05:24:33.120Z,51.111248
2022-12-28T05:25:33.081Z,51.111282
2022-12-28T05:26:33.267Z,51.111256
2022-12-28T05:27:33.218Z,51.111290
2022-12-28T05:28:33.282Z,51.111271
2022-12-28T05:29:33.199Z,51.111282
2022-12-28T05:30:33.135Z,51.111282
2022-12-28T05:31:33.181Z,51.111275
2022-12-28T05:32:33.104Z,51.111286
2022-12-28T05:33:33.083Z,51.111279
2022-12-28T05:34:33.122Z,51.111263
2022-12-28T05:35:33.140Z,51.111256
2022-12-28T05:36:33.096Z,51.111248
2022-12-28T05:37:33.093Z,51.111263
2022-12-28T05:38:33.074Z,51.111267
2022-12-28T05:39:33.089Z,51.111305
2022-12-28T05:40:33.109Z,51.111271
2022-12-28T05:41:33.067Z,51.111290
2022-12-28T05:42:33.006Z,51.111279
2022-12-28T05:43:33.106Z,51.111282
2022-12-28T05:44:33.048Z,51.111305
2022-12-28T05:45:33.095Z,51.111309
2022-12-28T05:46:33.115Z,51.111336
2022-12-28T05:47:33.087Z,51.111317
2022-12-28T05:48:33.002Z,51.111355
2022-12-28T05:49:33.046Z,51.111385
2022-12-28T05:50:33.011Z,51.111340
2022-12-28T05:51:33.142Z,51.111359
2022-12-28T05:52:32.960Z,51.111343
2022-12-28T05:53:32.917Z,51.111351
2022-12-28T05:54:32.875Z,51.111320
2022-12-28T05:55:32.905Z,51.111313
2022-12-28T05:56:32.846Z,51.111351
2022-12-28T05:57:32.888Z,51.111420
2022-12-28T05:58:32.884Z,51.111351
2022-12-28T05:59:32.841Z,51.111332
2022-12-28T06:00:32.848Z,51.111317
2022-12-28T06:01:32.981Z,51.111298
2022-12-28T06:02:32.980Z,51.111298
2022-12-28T06:03:32.941Z,51.111313
2022-12-28T06:04:32.844Z,51.111313
2022-12-28T06:05:32.802Z,51.111309
2022-12-28T06:06:32.873Z,51.111313
2022-12-28T06:07:32.907Z,51.111420
2022-12-28T06:08:32.747Z,51.111462
2022-12-28T06:09:32.845Z,51.111378
2022-12-28T06:10:32.894Z,51.111332
2022-12-28T06:11:32.864Z,51.111298
2022-12-28T06:12:32.875Z,51.111305
2022-12-28T06:13:32.903Z,51.111336
2022-12-28T06:14:32.912Z,51.111362
2022-12-28T06:15:32.817Z,51.111320
2022-12-28T06:16:32.867Z,51.111336
2022-12-28T06:17:32.822Z,51.111320
2022-12-28T06:18:32.802Z,51.111301
2022-12-28T06:19:32.780Z,51.111294
2022-12-28T06:20:32.839Z,51.111309
2022-12-28T06:21:32.807Z,51.111313
2022-12-28T06:22:32.772Z,51.111313
2022-12-28T06:23:32.738Z,51.111298
2022-12-28T06:24:32.798Z,51.111305
2022-12-28T06:25:32.749Z,51.111290
2022-12-28T06:26:32.739Z,51.111305
2022-12-28T06:27:32.727Z,51.111317
2022-12-28T06:28:32.741Z,51.111286
2022-12-28T06:29:32.773Z,51.111309
2022-12-28T06:30:32.719Z,51.111275
2022-12-28T06:31:32.820Z,51.111290
2022-12-28T06:32:32.692Z,51.111282
2022-12-28T06:33:32.751Z,51.111275
2022-12-28T06:34:32.657Z,51.111305
2022-12-28T06:35:33.126Z,51.111309
2022-12-28T06:36:32.680Z,51.111309
2022-12-28T06:37:32.668Z,51.111317
2022-12-28T06:38:32.732Z,51.111336
2022-12-28T06:39:32.651Z,51.111328
2022-12-28T06:41:02.386Z,51.111290
2022-12-28T06:41:34.549Z,51.111313
2022-12-28T06:42:32.610Z,51.111309
2022-12-28T06:43:32.620Z,51.111279
2022-12-28T06:44:32.630Z,51.111305
2022-12-28T06:45:32.664Z,51.111309
2022-12-28T06:46:32.631Z,51.111332
2022-12-28T06:47:32.583Z,51.111336
2022-12-28T06:48:32.635Z,51.111332
2022-12-28T06:49:32.578Z,51.111336
2022-12-28T06:50:38.319Z,51.111324
2022-12-28T06:51:35.612Z,51.111320
2022-12-28T06:52:32.505Z,51.111324
2022-12-28T06:53:32.469Z,51.111313
2022-12-28T06:54:32.461Z,51.111313
2022-12-28T06:55:32.450Z,51.111317
2022-12-28T06:56:32.493Z,51.111313
2022-12-28T06:57:32.424Z,51.111324
2022-12-28T06:58:32.422Z,51.111324
2022-12-28T06:59:32.451Z,51.111313
2022-12-28T07:00:32.405Z,51.111301
2022-12-28T07:01:32.548Z,51.111305
2022-12-28T07:02:32.555Z,51.111305
2022-12-28T07:03:32.445Z,51.111317
2022-12-28T07:04:32.372Z,51.111340
2022-12-28T07:05:32.466Z,51.111324
2022-12-28T07:06:32.465Z,51.111313
2022-12-28T07:07:32.472Z,51.111305
2022-12-28T07:08:33.360Z,51.111336
2022-12-28T07:09:32.467Z,51.111347
2022-12-28T07:10:32.444Z,51.111359
2022-12-28T07:11:32.412Z,51.111324
2022-12-28T07:12:32.394Z,51.111305
2022-12-28T07:13:32.452Z,51.111313
2022-12-28T07:14:32.420Z,51.111298
2022-12-28T07:15:32.428Z,51.111305
2022-12-28T07:18:18.046Z,51.111343
2022-12-28T07:19:18.088Z,51.111332
2022-12-28T07:20:18.040Z,51.111286
2022-12-28T07:21:18.049Z,51.111275
2022-12-28T07:22:18.057Z,51.111320
2022-12-28T07:23:19.038Z,51.111286
2022-12-28T07:24:18.083Z,51.111275
2022-12-28T07:25:18.008Z,51.111282
2022-12-28T07:26:18.076Z,51.111240
2022-12-28T07:27:18.062Z,51.111290
2022-12-28T07:28:18.030Z,51.111237
2022-12-28T07:29:18.046Z,51.111237
2022-12-28T07:30:18.099Z,51.111187
2022-12-28T07:31:18.167Z,51.111233
2022-12-28T07:32:18.020Z,51.111248
2022-12-28T07:33:18.028Z,51.111294
2022-12-28T07:34:18.138Z,51.111233
2022-12-28T07:35:18.087Z,51.111244
2022-12-28T07:36:18.039Z,51.111240
2022-12-28T07:37:17.999Z,51.111271
2022-12-28T07:38:21.309Z,51.111301
2022-12-28T07:39:19.005Z,51.111298
2022-12-28T07:40:17.965Z,51.111282
2022-12-28T07:41:18.265Z,51.111259
2022-12-28T07:42:17.937Z,51.111282
2022-12-28T07:43:17.989Z,51.111279
2022-12-28T07:44:17.925Z,51.111248
2022-12-28T07:45:18.001Z,51.111263
2022-12-28T07:46:18.093Z,51.111256
2022-12-28T07:47:17.979Z,51.111294
2022-12-28T07:48:17.914Z,51.111248
2022-12-28T07:49:17.934Z,51.111195
2022-12-28T07:50:17.934Z,51.111210
2022-12-28T07:51:17.907Z,51.111191
2022-12-28T07:52:17.958Z,51.111237
2022-12-28T07:53:22.034Z,51.111248
2022-12-28T07:54:18.919Z,51.111271
2022-12-28T07:55:17.904Z,51.111237
2022-12-28T07:56:17.904Z,51.111263
2022-12-28T07:57:17.906Z,51.111259
2022-12-28T07:58:17.851Z,51.111233
2022-12-28T07:59:17.846Z,51.111198
2022-12-28T08:00:17.879Z,51.111244
2022-12-28T08:01:18.023Z,51.111248
2022-12-28T08:02:17.953Z,51.111244
2022-12-28T08:03:17.870Z,51.111240
2022-12-28T08:04:17.778Z,51.111240
2022-12-28T08:05:17.738Z,51.111252
2022-12-28T08:06:17.729Z,51.111263
2022-12-28T08:07:17.750Z,51.111240
2022-12-28T08:08:17.783Z,51.111267
2022-12-28T08:09:17.713Z,51.111282
2022-12-28T08:10:17.783Z,51.111275
2022-12-28T08:11:17.712Z,51.111263
2022-12-28T08:12:17.758Z,51.111286
2022-12-28T08:13:17.740Z,51.111256
2022-12-28T08:14:17.801Z,51.111263
2022-12-28T08:15:17.744Z,51.111267
2022-12-28T08:16:17.727Z,51.111271
2022-12-28T08:17:21.189Z,51.111259
2022-12-28T08:18:18.700Z,51.111248
2022-12-28T08:19:17.733Z,51.111271
2022-12-28T08:20:17.605Z,51.111294
2022-12-28T08:21:17.718Z,51.111343
2022-12-28T08:22:17.671Z,51.111267
2022-12-28T08:23:17.780Z,51.111259
2022-12-28T08:24:17.721Z,51.111248
2022-12-28T08:25:17.723Z,51.111248
2022-12-28T08:26:17.653Z,51.111279
2022-12-28T08:27:17.693Z,51.111252
2022-12-28T08:28:17.620Z,51.111244
2022-12-28T08:29:17.661Z,51.111259
2022-12-28T08:30:18.678Z,51.111279
2022-12-28T08:31:17.736Z,51.111275
2022-12-28T08:32:17.590Z,51.111275
2022-12-28T08:33:17.621Z,51.111233
2022-12-28T08:34:17.623Z,51.111252
2022-12-28T08:35:17.622Z,51.111267
2022-12-28T08:36:17.522Z,51.111282
2022-12-28T08:37:18.507Z,51.111279
2022-12-28T08:38:17.545Z,51.111294
2022-12-28T08:39:17.501Z,51.111275
2022-12-28T08:40:17.471Z,51.111271
2022-12-28T08:41:18.037Z,51.111267
2022-12-28T08:42:17.457Z,51.111282
2022-12-28T08:43:17.429Z,51.111267
2022-12-28T08:44:17.450Z,51.111263
2022-12-28T08:45:17.456Z,51.111267
2022-12-28T08:46:17.643Z,51.111263
2022-12-28T08:47:17.480Z,51.111271
2022-12-28T08:48:17.410Z,51.111256
2022-12-28T08:49:17.421Z,51.111271
2022-12-28T08:50:20.073Z,51.111282
2022-12-28T08:51:18.419Z,51.111279
2022-12-28T08:52:17.393Z,51.111267
2022-12-28T08:53:17.523Z,51.111259
2022-12-28T08:54:17.534Z,51.111286
2022-12-28T08:55:17.462Z,51.111240
2022-12-28T08:56:17.459Z,51.111248
2022-12-28T08:57:17.491Z,51.111263
2022-12-28T08:58:17.420Z,51.111252
2022-12-28T08:59:17.430Z,51.111259
2022-12-28T09:00:17.428Z,51.111252
2022-12-28T09:01:17.526Z,51.111221
2022-12-28T09:02:17.517Z,51.111309
2022-12-28T09:03:17.495Z,51.111267
2022-12-28T09:04:17.390Z,51.111267
2022-12-28T09:05:17.388Z,51.111240
2022-12-28T09:06:17.355Z,51.111248
2022-12-28T09:07:17.345Z,51.111282
2022-12-28T09:08:17.339Z,51.111324
2022-12-28T09:09:17.465Z,51.111225
2022-12-28T09:10:17.395Z,51.111259
2022-12-28T09:11:17.362Z,51.111290
2022-12-28T09:12:17.375Z,51.111275
2022-12-28T09:13:17.404Z,51.111248
2022-12-28T09:14:23.705Z,51.111240
2022-12-28T09:15:19.330Z,51.111237
2022-12-28T09:16:17.353Z,51.111248
2022-12-28T09:17:17.380Z,51.111248
2022-12-28T09:18:17.321Z,51.111248
2022-12-28T09:19:17.315Z,51.111240
2022-12-28T09:20:17.198Z,51.111275
2022-12-28T09:21:17.234Z,51.111294
2022-12-28T09:22:17.197Z,51.111252
2022-12-28T09:23:17.197Z,51.111221
2022-12-28T09:24:17.336Z,51.111198
2022-12-28T09:25:17.172Z,51.111191
2022-12-28T09:26:17.167Z,51.111160
2022-12-28T09:27:17.192Z,51.111153
2022-12-28T09:28:17.202Z,51.111313
2022-12-28T09:29:17.176Z,51.111366
2022-12-28T09:30:17.311Z,51.111340
2022-12-28T09:31:17.266Z,51.111301
2022-12-28T09:32:17.246Z,51.111259
2022-12-28T09:33:17.224Z,51.111221
2022-12-28T09:34:35.982Z,51.111240
2022-12-28T09:35:19.150Z,51.111233
2022-12-28T09:36:17.200Z,51.111282
2022-12-28T09:37:18.147Z,51.111252
2022-12-28T09:38:17.878Z,51.111267
2022-12-28T09:39:17.350Z,51.111263
2022-12-28T09:40:17.227Z,51.111286
2022-12-28T09:41:17.179Z,51.111248
2022-12-28T09:42:17.233Z,51.111252
2022-12-28T09:43:17.190Z,51.111320
2022-12-28T09:44:17.232Z,51.111248
2022-12-28T09:45:17.146Z,51.111217
2022-12-28T09:46:17.793Z,51.111271
2022-12-28T09:47:17.172Z,51.111225
2022-12-28T09:48:17.123Z,51.111279
2022-12-28T09:49:17.227Z,51.111252
2022-12-28T09:50:17.236Z,51.111217
2022-12-28T09:51:17.203Z,51.111263
2022-12-28T09:52:17.143Z,51.111244
2022-12-28T09:53:18.082Z,51.111279
2022-12-28T09:54:17.107Z,51.111259
2022-12-28T09:55:17.075Z,51.111240
2022-12-28T09:56:17.098Z,51.111259
2022-12-28T09:57:17.105Z,51.111229
2022-12-28T09:58:17.071Z,51.111256
2022-12-28T09:59:17.077Z,51.111256
2022-12-28T10:00:17.111Z,51.111195
2022-12-28T10:01:17.171Z,51.111263
2022-12-28T10:02:17.149Z,51.111279
2022-12-28T10:03:17.157Z,51.111233
2022-12-28T10:04:18.012Z,51.111233
2022-12-28T10:05:17.072Z,51.111229
2022-12-28T10:06:16.992Z,51.111225
2022-12-28T10:07:17.096Z,51.111198
2022-12-28T10:08:16.955Z,51.111214
2022-12-28T10:09:17.091Z,51.111263
2022-12-28T10:10:17.040Z,51.111259
2022-12-28T10:11:17.106Z,51.111320
2022-12-28T10:12:16.870Z,51.111298
2022-12-28T10:13:37.404Z,51.111214
2022-12-28T10:14:18.869Z,51.111244
2022-12-28T10:15:16.903Z,51.111294
2022-12-28T10:16:16.907Z,51.111271
2022-12-28T10:17:16.861Z,51.111233
2022-12-28T10:18:16.887Z,51.111221
2022-12-28T10:19:16.859Z,51.111252
2022-12-28T10:20:16.831Z,51.111286
2022-12-28T10:21:16.835Z,51.111313
2022-12-28T10:22:16.813Z,51.111282
2022-12-28T10:23:16.836Z,51.111328
2022-12-28T10:24:33.030Z,51.111328
2022-12-28T10:25:18.796Z,51.111336
2022-12-28T10:26:16.831Z,51.111294
2022-12-28T10:27:16.798Z,51.111305
2022-12-28T10:28:16.831Z,51.111290
2022-12-28T10:29:16.906Z,51.111286
2022-12-28T10:30:17.069Z,51.111324
2022-12-28T10:31:16.877Z,51.111317
2022-12-28T10:32:16.933Z,51.111320
2022-12-28T10:33:16.874Z,51.111309
2022-12-28T10:34:17.735Z,51.111298
2022-12-28T10:35:16.886Z,51.111305
2022-12-28T10:36:16.869Z,51.111267
2022-12-28T10:37:16.805Z,51.111275
2022-12-28T10:38:16.831Z,51.111271
2022-12-28T10:39:16.849Z,51.111256
2022-12-28T10:40:16.822Z,51.111263
2022-12-28T10:41:17.125Z,51.111282
2022-12-28T10:42:16.787Z,51.111275
2022-12-28T10:43:16.747Z,51.111290
2022-12-28T10:44:40.382Z,51.111244
2022-12-28T10:45:18.669Z,51.111252
2022-12-28T10:46:17.003Z,51.111275
2022-12-28T10:47:16.926Z,51.111324
2022-12-28T10:48:16.825Z,51.111332
2022-12-28T10:49:16.891Z,51.111313
2022-12-28T10:50:36.705Z,51.111305
2022-12-28T10:51:18.665Z,51.111256
2022-12-28T10:52:16.707Z,51.111259
2022-12-28T10:53:16.721Z,51.111309
2022-12-28T10:54:16.703Z,51.111309
2022-12-28T10:55:17.589Z,51.111320
2022-12-28T10:56:17.513Z,51.111313
2022-12-28T10:57:16.817Z,51.111279
2022-12-28T10:58:29.455Z,51.111290
2022-12-28T10:59:18.603Z,51.111317
2022-12-28T11:00:16.645Z,51.111290
2022-12-28T11:01:17.818Z,51.111279
2022-12-28T11:02:16.819Z,51.111282
2022-12-28T11:03:16.632Z,51.111282
2022-12-28T11:04:16.630Z,51.111279
2022-12-28T11:05:16.624Z,51.111282
2022-12-28T11:06:18.855Z,51.111279
2022-12-28T11:07:17.654Z,51.111263
2022-12-28T11:08:16.486Z,51.111282
2022-12-28T11:09:16.631Z,51.111271
2022-12-28T11:10:16.631Z,51.111259
2022-12-28T11:11:17.561Z,51.111279
2022-12-28T11:12:16.584Z,51.111263
2022-12-28T11:13:21.566Z,51.111279
2022-12-28T11:14:18.526Z,51.111286
2022-12-28T11:15:16.514Z,51.111286
2022-12-28T11:16:16.559Z,51.111286
2022-12-28T11:17:16.497Z,51.111271
2022-12-28T11:18:16.562Z,51.111279
2022-12-28T11:19:16.532Z,51.111263
2022-12-28T11:20:16.575Z,51.111240
2022-12-28T11:21:16.386Z,51.111267
2022-12-28T11:22:16.487Z,51.111259
2022-12-28T11:23:16.508Z,51.111256
2022-12-28T11:24:16.469Z,51.111263
2022-12-28T11:25:16.454Z,51.111271
2022-12-28T11:26:16.373Z,51.111275